createdAt,value
2023-05-03T00:01:31.637Z,8.80
2023-05-03T00:03:59.229Z,8.27
2023-05-03T00:06:26.913Z,8.10
2023-05-03T00:08:54.589Z,7.60
2023-05-03T00:11:23.587Z,8.10
2023-05-03T00:13:51.181Z,8.10
2023-05-03T00:16:19.712Z,9.00
2023-05-03T00:18:49.083Z,7.50
2023-05-03T00:21:17.074Z,7.97
2023-05-03T00:23:44.744Z,9.80
2023-05-03T00:26:12.332Z,8.27
2023-05-03T00:28:41.307Z,7.50
2023-05-03T00:31:09.910Z,9.70
2023-05-03T00:33:38.359Z,8.30
2023-05-03T00:36:09.958Z,8.87
2023-05-03T00:38:37.736Z,8.70
2023-05-03T00:41:05.748Z,8.10
2023-05-03T00:43:33.857Z,8.57
2023-05-03T00:46:16.171Z,8.93
2023-05-03T00:48:44.751Z,7.97
2023-05-03T00:51:15.468Z,8.03
2023-05-03T00:53:43.672Z,8.80
2023-05-03T00:56:12.285Z,8.97
2023-05-03T00:58:40.595Z,8.70
2023-05-03T01:01:09.864Z,8.27
2023-05-03T01:03:41.354Z,8.47
2023-05-03T01:06:17.930Z,8.27
2023-05-03T01:08:51.854Z,9.73
2023-05-03T01:11:28.261Z,8.10
2023-05-03T01:13:58.263Z,8.13
2023-05-03T01:16:35.915Z,9.40
2023-05-03T01:19:08.476Z,8.43
2023-05-03T01:21:38.012Z,9.20
2023-05-03T01:24:12.489Z,8.33
2023-05-03T01:26:41.527Z,8.23
2023-05-03T01:29:09.170Z,9.07
2023-05-03T01:31:40.411Z,8.20
2023-05-03T01:34:23.001Z,9.27
2023-05-03T01:36:51.706Z,8.97
2023-05-03T01:39:28.196Z,8.67
2023-05-03T01:41:59.150Z,9.43
2023-05-03T01:44:27.809Z,8.47
2023-05-03T01:46:55.510Z,9.23
2023-05-03T01:49:23.134Z,9.47
2023-05-03T01:51:50.771Z,10.70
2023-05-03T01:54:18.421Z,8.40
2023-05-03T01:56:46.873Z,9.10
2023-05-03T01:59:15.881Z,9.13
2023-05-03T02:01:43.656Z,8.50
2023-05-03T02:04:11.765Z,8.87
2023-05-03T02:06:39.397Z,9.80
2023-05-03T02:09:07.154Z,8.83
2023-05-03T02:11:34.807Z,8.13
2023-05-03T02:14:02.408Z,10.47
2023-05-03T02:16:31.482Z,8.43
2023-05-03T02:18:59.557Z,8.50
2023-05-03T02:21:27.705Z,7.07
2023-05-03T02:23:55.928Z,8.33
2023-05-03T02:26:23.553Z,7.80
2023-05-03T02:28:51.128Z,7.67
2023-05-03T02:31:18.770Z,8.83
2023-05-03T02:33:47.795Z,7.87
2023-05-03T02:36:15.456Z,7.90
2023-05-03T02:38:43.070Z,8.70
2023-05-03T02:41:10.679Z,8.90
2023-05-03T02:43:38.286Z,8.33
2023-05-03T02:46:05.969Z,8.90
2023-05-03T02:48:33.572Z,8.27
2023-05-03T02:51:03.312Z,8.10
2023-05-03T02:53:30.953Z,8.90
2023-05-03T02:55:58.597Z,9.60
2023-05-03T02:58:26.170Z,8.50
2023-05-03T03:00:53.906Z,9.50
2023-05-03T03:03:21.657Z,8.70
2023-05-03T03:05:49.317Z,8.90
2023-05-03T03:08:19.360Z,9.00
2023-05-03T03:10:47.032Z,8.80
2023-05-03T03:13:14.668Z,10.10
2023-05-03T03:15:42.334Z,9.23
2023-05-03T03:18:10.020Z,8.63
2023-05-03T03:20:37.732Z,8.77
2023-05-03T03:23:05.309Z,10.50
2023-05-03T03:25:34.293Z,9.20
2023-05-03T03:28:01.935Z,9.10
2023-05-03T03:30:29.914Z,10.20
2023-05-03T03:32:57.559Z,9.43
2023-05-03T03:35:25.853Z,9.60
2023-05-03T03:37:53.506Z,8.80
2023-05-03T03:40:21.159Z,8.90
2023-05-03T03:42:50.122Z,9.60
2023-05-03T03:45:18.079Z,10.53
2023-05-03T03:47:45.783Z,10.80
2023-05-03T03:50:13.527Z,9.83
2023-05-03T03:52:41.284Z,9.83
2023-05-03T03:55:09.150Z,10.03
2023-05-03T03:57:36.715Z,8.87
2023-05-03T04:00:10.836Z,10.33
2023-05-03T04:02:38.749Z,11.90
2023-05-03T04:05:08.068Z,10.03
2023-05-03T04:07:35.692Z,10.67
2023-05-03T04:10:03.594Z,9.80
2023-05-03T04:12:31.406Z,8.23
2023-05-03T04:14:59.051Z,8.63
2023-05-03T04:17:29.164Z,9.20
2023-05-03T04:19:56.953Z,9.50
2023-05-03T04:22:24.756Z,9.90
2023-05-03T04:24:53.093Z,9.40
2023-05-03T04:27:20.668Z,9.23
2023-05-03T04:29:49.093Z,9.13
2023-05-03T04:32:16.957Z,10.03
2023-05-03T04:34:47.883Z,9.40
2023-05-03T04:37:17.662Z,9.87
2023-05-03T04:39:45.777Z,10.10
2023-05-03T04:42:15.210Z,8.37
2023-05-03T04:44:43.487Z,8.10
2023-05-03T04:47:11.763Z,8.60
2023-05-03T04:49:39.907Z,7.30
2023-05-03T04:52:10.205Z,6.83
2023-05-03T04:54:37.792Z,7.47
2023-05-03T04:57:05.526Z,6.43
2023-05-03T04:59:33.109Z,6.93
2023-05-03T05:02:00.928Z,6.60
2023-05-03T05:04:28.660Z,6.90
2023-05-03T05:06:56.261Z,6.50
2023-05-03T05:09:26.819Z,5.77
2023-05-03T05:11:57.009Z,5.67
2023-05-03T05:14:25.092Z,5.23
2023-05-03T05:16:53.165Z,5.63
2023-05-03T05:19:20.797Z,4.97
2023-05-03T05:21:48.424Z,4.70
2023-05-03T05:24:16.131Z,5.20
2023-05-03T05:26:45.471Z,5.23
2023-05-03T05:29:13.097Z,5.53
2023-05-03T05:31:40.763Z,5.57
2023-05-03T05:34:08.467Z,4.80
2023-05-03T05:36:36.222Z,5.53
2023-05-03T05:39:04.622Z,5.40
2023-05-03T05:41:32.256Z,5.20
2023-05-03T05:44:01.215Z,5.10
2023-05-03T05:46:28.840Z,4.70
2023-05-03T05:48:56.505Z,4.40
2023-05-03T05:51:24.066Z,5.00
2023-05-03T05:53:51.705Z,5.10
2023-05-03T05:56:19.299Z,5.57
2023-05-03T05:58:46.874Z,5.60
2023-05-03T06:01:15.796Z,5.87
2023-05-03T06:03:43.763Z,5.20
2023-05-03T06:06:11.471Z,5.40
2023-05-03T06:08:39.122Z,5.40
2023-05-03T06:11:07.689Z,5.53
2023-05-03T06:13:38.415Z,5.73
2023-05-03T06:16:06.831Z,5.10
2023-05-03T06:18:35.843Z,5.63
2023-05-03T06:21:03.527Z,5.73
2023-05-03T06:23:32.421Z,5.80
2023-05-03T06:25:59.991Z,5.13
2023-05-03T06:28:27.587Z,6.70
2023-05-03T06:30:55.182Z,5.60
2023-05-03T06:33:22.891Z,5.73
2023-05-03T06:35:52.253Z,4.97
2023-05-03T06:38:20.097Z,5.63
2023-05-03T06:40:48.038Z,5.93
2023-05-03T06:43:15.786Z,5.23
2023-05-03T06:45:44.516Z,5.17
2023-05-03T06:48:12.172Z,5.80
2023-05-03T06:50:40.274Z,5.63
2023-05-03T06:53:09.211Z,6.17
2023-05-03T06:55:36.902Z,6.47
2023-05-03T06:58:09.872Z,5.40
2023-05-03T07:00:39.059Z,5.37
2023-05-03T07:03:07.071Z,5.40
2023-05-03T07:05:35.054Z,5.07
2023-05-03T07:08:03.524Z,5.43
2023-05-03T07:10:32.524Z,5.50
2023-05-03T07:13:00.138Z,5.53
2023-05-03T07:15:28.103Z,5.00
2023-05-03T07:17:55.818Z,5.07
2023-05-03T07:20:23.487Z,5.57
2023-05-03T07:22:51.043Z,5.20
2023-05-03T07:25:18.821Z,5.07
2023-05-03T07:27:47.765Z,4.97
2023-05-03T07:30:15.931Z,7.20
2023-05-03T07:32:43.740Z,5.20
2023-05-03T07:35:11.517Z,4.53
2023-05-03T07:37:39.086Z,5.00
2023-05-03T07:40:07.966Z,6.00
2023-05-03T07:42:35.639Z,5.13
2023-05-03T07:45:05.087Z,4.53
2023-05-03T07:47:33.167Z,5.63
2023-05-03T07:50:01.660Z,4.60
2023-05-03T07:52:29.391Z,5.53
2023-05-03T07:54:57.009Z,4.97
2023-05-03T07:57:25.809Z,5.13
2023-05-03T07:59:53.402Z,5.07
2023-05-03T08:02:22.670Z,4.70
2023-05-03T08:04:50.683Z,4.20
2023-05-03T08:07:18.430Z,5.67
2023-05-03T08:09:46.068Z,4.50
2023-05-03T08:12:13.709Z,5.03
2023-05-03T08:14:41.630Z,4.40
2023-05-03T08:17:09.623Z,5.33
2023-05-03T08:19:38.609Z,5.07
2023-05-03T08:22:07.409Z,5.10
2023-05-03T08:24:35.104Z,4.83
2023-05-03T08:27:02.797Z,5.10
2023-05-03T08:29:30.424Z,5.37
2023-05-03T08:31:58.331Z,5.20
2023-05-03T08:34:26.344Z,5.60
2023-05-03T08:36:55.301Z,5.50
2023-05-03T08:39:24.502Z,4.23
2023-05-03T08:41:52.112Z,4.50
2023-05-03T08:44:23.163Z,4.80
2023-05-03T08:46:51.048Z,4.67
2023-05-03T08:49:19.403Z,4.73
2023-05-03T08:51:48.252Z,3.90
2023-05-03T08:54:20.666Z,3.93
2023-05-03T08:56:48.718Z,4.67
2023-05-03T08:59:17.348Z,4.00
2023-05-03T09:01:45.166Z,3.83
2023-05-03T09:04:13.231Z,4.27
2023-05-03T09:06:41.369Z,4.90
2023-05-03T09:09:09.587Z,4.13
2023-05-03T09:11:39.686Z,3.90
2023-05-03T09:14:11.929Z,4.63
2023-05-03T09:16:40.425Z,4.47
2023-05-03T09:19:11.801Z,3.50
2023-05-03T09:21:40.353Z,3.53
2023-05-03T09:24:14.915Z,3.80
2023-05-03T09:26:45.477Z,3.37
2023-05-03T09:29:29.051Z,3.80
2023-05-03T09:32:01.420Z,4.40
2023-05-03T09:34:29.242Z,4.03
2023-05-03T09:36:56.870Z,3.53
2023-05-03T09:39:24.602Z,3.77
2023-05-03T09:41:53.615Z,4.13
2023-05-03T09:44:21.400Z,4.00
2023-05-03T09:47:05.184Z,3.90
2023-05-03T09:49:33.354Z,4.27
2023-05-03T09:52:02.710Z,4.30
2023-05-03T09:54:31.911Z,4.80
2023-05-03T09:57:02.338Z,4.23
2023-05-03T09:59:30.157Z,4.30
2023-05-03T10:01:59.855Z,4.57
2023-05-03T10:04:28.845Z,4.13
2023-05-03T10:07:00.839Z,4.43
2023-05-03T10:09:39.837Z,5.13
2023-05-03T10:12:12.350Z,4.87
2023-05-03T10:14:42.502Z,4.60
2023-05-03T10:17:17.804Z,3.80
2023-05-03T10:19:52.193Z,4.20
2023-05-03T10:22:19.804Z,3.80
2023-05-03T10:25:08.716Z,4.10
2023-05-03T10:28:03.418Z,4.00
2023-05-03T10:30:32.827Z,3.80
2023-05-03T10:33:19.893Z,3.90
2023-05-03T10:35:53.085Z,4.00
2023-05-03T10:38:22.650Z,3.63
2023-05-03T10:40:50.801Z,4.20
2023-05-03T10:43:46.564Z,4.20
2023-05-03T10:46:35.309Z,3.90
2023-05-03T10:49:23.170Z,3.90
2023-05-03T10:51:51.757Z,4.00
2023-05-03T10:54:19.683Z,4.47
2023-05-03T10:56:52.209Z,4.23
2023-05-03T10:59:21.937Z,3.97
2023-05-03T11:01:51.370Z,3.67
2023-05-03T11:04:36.007Z,3.93
2023-05-03T11:07:04.551Z,4.20
2023-05-03T11:09:34.600Z,4.10
2023-05-03T11:12:06.480Z,4.53
2023-05-03T11:14:35.561Z,3.90
2023-05-03T11:17:03.396Z,4.63
2023-05-03T11:19:31.274Z,4.37
2023-05-03T11:21:59.099Z,4.63
2023-05-03T11:24:26.776Z,4.40
2023-05-03T11:26:54.477Z,4.60
2023-05-03T11:29:22.195Z,4.13
2023-05-03T11:31:52.679Z,4.30
2023-05-03T11:34:20.356Z,5.20
2023-05-03T11:36:49.277Z,4.57
2023-05-03T11:39:18.157Z,4.23
2023-05-03T11:42:02.674Z,4.30
2023-05-03T11:44:30.491Z,4.90
2023-05-03T11:46:59.869Z,4.50
2023-05-03T11:49:27.972Z,4.83
2023-05-03T11:51:55.774Z,4.67
2023-05-03T11:54:26.838Z,4.70
2023-05-03T11:56:57.714Z,4.50
2023-05-03T11:59:35.833Z,4.70
2023-05-03T12:02:05.309Z,3.93
2023-05-03T12:04:33.692Z,4.37
2023-05-03T12:07:03.217Z,5.20
2023-05-03T12:09:31.751Z,5.20
2023-05-03T12:12:02.357Z,4.23
2023-05-03T12:14:51.131Z,4.20
2023-05-03T12:17:37.570Z,4.40
2023-05-03T12:22:51.264Z,4.33
2023-05-03T12:25:20.791Z,5.00
2023-05-03T12:28:05.463Z,4.87
2023-05-03T12:30:40.090Z,5.03
2023-05-03T12:33:10.749Z,4.30
2023-05-03T12:35:41.043Z,4.00
2023-05-03T12:38:10.298Z,5.20
2023-05-03T12:40:39.686Z,4.97
2023-05-03T12:43:07.775Z,4.60
2023-05-03T12:45:38.743Z,5.00
2023-05-03T12:48:09.747Z,4.20
2023-05-03T12:50:39.349Z,5.23
2023-05-03T12:53:10.009Z,4.13
2023-05-03T12:55:43.157Z,5.27
2023-05-03T13:00:50.645Z,4.70
2023-05-03T13:03:33.713Z,4.23
2023-05-03T13:06:11.803Z,4.97
2023-05-03T13:08:49.570Z,4.00
2023-05-03T13:11:19.174Z,4.53
2023-05-03T13:13:47.321Z,5.10
2023-05-03T13:16:15.033Z,4.40
2023-05-03T13:18:45.393Z,4.80
2023-05-03T13:21:13.134Z,4.40
2023-05-03T13:23:40.865Z,4.30
2023-05-03T13:26:08.530Z,4.37
2023-05-03T13:28:36.183Z,4.60
2023-05-03T13:31:03.967Z,5.10
2023-05-03T13:33:31.862Z,4.27
2023-05-03T13:36:00.786Z,5.00
2023-05-03T13:38:28.399Z,4.90
2023-05-03T13:40:56.010Z,4.13
2023-05-03T13:43:23.572Z,4.63
2023-05-03T13:45:52.647Z,5.23
2023-05-03T13:48:20.444Z,4.43
2023-05-03T13:50:48.104Z,4.67
2023-05-03T13:53:17.934Z,4.80
2023-05-03T13:55:45.570Z,4.60
2023-05-03T13:58:13.231Z,4.70
2023-05-03T14:00:41.068Z,4.20
2023-05-03T14:03:08.747Z,4.10
2023-05-03T14:05:36.533Z,4.50
2023-05-03T14:08:04.297Z,4.53
2023-05-03T14:10:36.710Z,4.40
2023-05-03T14:13:04.578Z,4.23
2023-05-03T14:15:32.466Z,5.37
2023-05-03T14:18:03.048Z,4.70
2023-05-03T14:20:34.218Z,3.97
2023-05-03T14:23:02.166Z,4.10
2023-05-03T14:25:30.109Z,5.20
2023-05-03T14:27:59.083Z,4.90
2023-05-03T14:30:26.684Z,5.10
2023-05-03T14:32:54.309Z,4.17
2023-05-03T14:35:23.050Z,4.23
2023-05-03T14:37:50.616Z,4.20
2023-05-03T14:40:18.237Z,4.20
2023-05-03T14:42:46.021Z,4.90
2023-05-03T14:45:15.470Z,4.90
2023-05-03T14:47:43.174Z,3.90
2023-05-03T14:50:11.559Z,4.70
2023-05-03T14:52:39.139Z,4.40
2023-05-03T14:55:08.041Z,4.40
2023-05-03T14:57:36.393Z,4.27
2023-05-03T15:00:07.391Z,4.70
2023-05-03T15:02:36.723Z,3.87
2023-05-03T15:05:05.074Z,4.60
2023-05-03T15:07:32.705Z,4.83
2023-05-03T15:10:03.754Z,3.90
2023-05-03T15:12:32.004Z,4.30
2023-05-03T15:15:00.151Z,3.80
2023-05-03T15:17:27.940Z,4.00
2023-05-03T15:19:57.259Z,4.27
2023-05-03T15:22:24.865Z,3.83
2023-05-03T15:24:52.477Z,3.77
2023-05-03T15:27:20.058Z,4.10
2023-05-03T15:29:47.678Z,3.80
2023-05-03T15:32:15.343Z,3.20
2023-05-03T15:34:43.059Z,3.30
2023-05-03T15:37:13.022Z,4.47
2023-05-03T15:39:40.668Z,4.03
2023-05-03T15:42:08.575Z,3.93
2023-05-03T15:44:36.225Z,4.03
2023-05-03T15:47:03.836Z,4.67
2023-05-03T15:49:31.970Z,4.43
2023-05-03T15:51:59.602Z,4.00
2023-05-03T15:54:28.533Z,4.20
2023-05-03T15:56:56.320Z,4.20
2023-05-03T15:59:23.953Z,4.63
2023-05-03T16:01:52.239Z,4.00
2023-05-03T16:04:20.249Z,4.00
2023-05-03T16:06:48.460Z,3.90
2023-05-03T16:09:16.556Z,4.10
2023-05-03T16:11:45.490Z,4.50
2023-05-03T16:14:13.136Z,4.27
2023-05-03T16:16:41.922Z,4.83
2023-05-03T16:19:09.835Z,3.97
2023-05-03T16:21:37.629Z,4.60
2023-05-03T16:24:05.794Z,3.80
2023-05-03T16:26:34.520Z,4.17
2023-05-03T16:29:04.007Z,4.20
2023-05-03T16:31:31.757Z,4.10
2023-05-03T16:33:59.435Z,3.70
2023-05-03T16:36:27.990Z,4.10
2023-05-03T16:38:59.018Z,4.23
2023-05-03T16:41:26.698Z,4.17
2023-05-03T16:43:54.323Z,3.77
2023-05-03T16:46:23.465Z,4.20
2023-05-03T16:48:51.873Z,4.37
2023-05-03T16:51:21.735Z,4.30
2023-05-03T16:53:49.400Z,3.80
2023-05-03T16:56:17.391Z,3.60
2023-05-03T16:58:45.184Z,4.03
2023-05-03T17:01:13.213Z,4.10
2023-05-03T17:03:42.653Z,3.77
2023-05-03T17:06:10.353Z,4.27
2023-05-03T17:08:38.117Z,3.80
2023-05-03T17:11:08.398Z,3.73
2023-05-03T17:13:36.205Z,4.53
2023-05-03T17:16:08.554Z,4.30
2023-05-03T17:18:36.945Z,4.00
2023-05-03T17:21:06.230Z,4.10
2023-05-03T17:23:36.396Z,4.20
2023-05-03T17:26:04.688Z,3.80
2023-05-03T17:28:32.897Z,4.00
2023-05-03T17:31:02.797Z,3.47
2023-05-03T17:33:30.759Z,3.47
2023-05-03T17:36:00.626Z,3.80
2023-05-03T17:38:29.669Z,3.67
2023-05-03T17:40:57.279Z,3.83
2023-05-03T17:43:24.886Z,3.80
2023-05-03T17:45:52.547Z,3.97
2023-05-03T17:48:20.319Z,3.23
2023-05-03T17:50:47.893Z,3.77
2023-05-03T17:53:16.934Z,4.13
2023-05-03T17:55:45.899Z,3.70
2023-05-03T17:58:13.484Z,3.50
2023-05-03T18:00:41.223Z,4.23
2023-05-03T18:03:10.418Z,4.17
2023-05-03T18:05:38.286Z,4.00
2023-05-03T18:08:06.251Z,3.60
2023-05-03T18:10:33.845Z,4.83
2023-05-03T18:13:04.429Z,3.90
2023-05-03T18:15:32.262Z,4.60
2023-05-03T18:17:59.941Z,5.20
2023-05-03T18:20:27.581Z,4.40
2023-05-03T18:22:55.265Z,4.23
2023-05-03T18:25:22.923Z,3.70
2023-05-03T18:27:50.521Z,4.07
2023-05-03T18:30:19.601Z,4.07
2023-05-03T18:32:47.238Z,4.10
2023-05-03T18:35:15.228Z,4.57
2023-05-03T18:37:43.567Z,4.77
2023-05-03T18:40:11.701Z,4.33
2023-05-03T18:42:39.277Z,4.47
2023-05-03T18:45:07.762Z,4.57
2023-05-03T18:47:36.819Z,4.57
2023-05-03T18:50:05.190Z,4.60
2023-05-03T18:52:33.009Z,4.90
2023-05-03T18:55:00.632Z,4.57
2023-05-03T18:57:28.767Z,4.60
2023-05-03T19:00:01.170Z,5.57
2023-05-03T19:02:31.136Z,5.50
2023-05-03T19:05:00.890Z,4.20
2023-05-03T19:07:28.947Z,4.50
2023-05-03T19:09:57.088Z,4.93
2023-05-03T19:12:25.444Z,5.90
2023-05-03T19:14:53.108Z,5.40
2023-05-03T19:17:20.737Z,5.70
2023-05-03T19:19:48.323Z,4.87
2023-05-03T19:22:17.287Z,5.00
2023-05-03T19:24:44.914Z,5.07
2023-05-03T19:27:13.007Z,5.60
2023-05-03T19:29:40.634Z,5.70
2023-05-03T19:32:08.196Z,5.80
2023-05-03T19:34:36.430Z,6.17
2023-05-03T19:37:04.482Z,5.73
2023-05-03T19:39:35.663Z,6.30
2023-05-03T19:42:03.879Z,6.80
2023-05-03T19:44:31.880Z,6.67
2023-05-03T19:46:59.611Z,6.60
2023-05-03T19:49:27.264Z,7.10
2023-05-03T19:51:55.815Z,7.20
2023-05-03T19:54:23.663Z,6.63
2023-05-03T19:56:52.595Z,6.97
2023-05-03T19:59:20.209Z,7.20
2023-05-03T20:01:48.290Z,7.27
2023-05-03T20:04:16.328Z,8.50
2023-05-03T20:06:44.066Z,7.37
2023-05-03T20:09:11.786Z,8.80
2023-05-03T20:11:39.401Z,7.30
2023-05-03T20:14:08.465Z,7.43
2023-05-03T20:16:38.962Z,7.60
2023-05-03T20:19:06.936Z,7.43
2023-05-03T20:21:34.572Z,7.70
2023-05-03T20:24:04.567Z,7.30
2023-05-03T20:26:32.147Z,7.03
2023-05-03T20:28:59.770Z,7.57
2023-05-03T20:31:28.725Z,6.93
2023-05-03T20:33:56.641Z,7.57
2023-05-03T20:36:24.286Z,7.70
2023-05-03T20:38:51.978Z,6.90
2023-05-03T20:41:19.561Z,7.77
2023-05-03T20:43:47.176Z,8.17
2023-05-03T20:46:14.839Z,7.20
2023-05-03T20:48:43.840Z,7.33
2023-05-03T20:51:11.577Z,7.67
2023-05-03T20:53:39.147Z,6.70
2023-05-03T20:56:07.854Z,8.20
2023-05-03T20:58:36.269Z,8.07
2023-05-03T21:01:05.370Z,8.07
2023-05-03T21:03:33.463Z,8.50
2023-05-03T21:06:02.695Z,8.80
2023-05-03T21:08:30.276Z,7.17
2023-05-03T21:10:57.882Z,7.03
2023-05-03T21:13:25.520Z,7.60
2023-05-03T21:15:53.130Z,7.87
2023-05-03T21:18:20.773Z,7.80
2023-05-03T21:20:48.419Z,8.97
2023-05-03T21:23:17.356Z,7.83
2023-05-03T21:25:45.020Z,8.90
2023-05-03T21:28:12.674Z,7.87
2023-05-03T21:30:41.953Z,6.60
2023-05-03T21:33:10.034Z,7.87
2023-05-03T21:35:37.796Z,7.97
2023-05-03T21:38:05.401Z,8.30
2023-05-03T21:40:34.400Z,7.73
2023-05-03T21:43:02.187Z,7.00
2023-05-03T21:45:29.886Z,8.33
2023-05-03T21:47:57.468Z,6.73
2023-05-03T21:50:25.358Z,7.70
2023-05-03T21:52:52.917Z,6.97
2023-05-03T21:55:20.898Z,7.10
2023-05-03T21:57:49.836Z,9.40
2023-05-03T22:00:20.443Z,6.20
2023-05-03T22:02:48.305Z,7.10
2023-05-03T22:05:16.061Z,7.00
2023-05-03T22:07:43.675Z,7.17
2023-05-03T22:10:11.387Z,7.70
2023-05-03T22:12:39.268Z,6.77
2023-05-03T22:15:09.197Z,7.47
2023-05-03T22:17:37.268Z,6.87
2023-05-03T22:20:05.996Z,6.33
2023-05-03T22:22:33.851Z,6.90
2023-05-03T22:25:01.534Z,7.63
2023-05-03T22:27:29.184Z,6.80
2023-05-03T22:29:57.031Z,6.87
2023-05-03T22:32:26.564Z,7.80
2023-05-03T22:34:54.163Z,6.73
2023-05-03T22:37:21.964Z,6.73
2023-05-03T22:39:49.610Z,8.90
2023-05-03T22:42:17.545Z,7.23
2023-05-03T22:44:45.125Z,6.87
2023-05-03T22:47:12.741Z,7.40
2023-05-03T22:49:41.655Z,7.13
2023-05-03T22:52:09.520Z,6.83
2023-05-03T22:54:37.120Z,7.63
2023-05-03T22:57:05.023Z,8.83
2023-05-03T22:59:32.612Z,8.30
2023-05-03T23:02:00.330Z,7.43
2023-05-03T23:04:27.930Z,7.20
2023-05-03T23:06:56.876Z,8.50
2023-05-03T23:09:24.674Z,8.40
2023-05-03T23:11:52.269Z,8.03
2023-05-03T23:14:19.854Z,7.97
2023-05-03T23:16:47.501Z,7.63
2023-05-03T23:19:15.202Z,7.67
2023-05-03T23:21:42.836Z,7.23
2023-05-03T23:24:12.243Z,7.80
2023-05-03T23:26:40.297Z,7.23
2023-05-03T23:29:09.467Z,7.47
2023-05-03T23:31:38.460Z,7.90
2023-05-03T23:34:07.026Z,6.73
2023-05-03T23:36:34.626Z,7.83
2023-05-03T23:39:02.853Z,7.90
2023-05-03T23:41:33.291Z,7.70
2023-05-03T23:44:00.901Z,7.40
2023-05-03T23:46:28.555Z,6.60
2023-05-03T23:48:56.186Z,8.03
2023-05-03T23:51:23.806Z,7.43
2023-05-03T23:53:51.426Z,7.50
2023-05-03T23:56:19.001Z,8.03
2023-05-03T23:58:48.317Z,7.23
